FAKN

Kruger Mpumalanga International Airport

Mpumalanga, South Africa
METAR FAKN 181600Z 07007KT 9999 FEW030 27/15 Q1014 NOSIG
Observed Flight Rules
Dec-18 @ 16:00 UTC (29 minutes ago) Visual Flight Rules
Wind Visibility Clouds
70° at 7 knots 10,000+ meters
  • Few at 3,000' AGL
Temperatures Readings
Current 27°C / 81°F
Dewpoint 15°C / 59°F
Humidity 48%
Altimeter 29.94" Hg
Pressure 1014 hPa
Elevation 862
METAR FAKN 181600Z 07007KT 9999 FEW030 27/15 Q1014 NOSIG
Observed Flight Rules
Dec-18 @ 16:00 UTC
(29 minutes ago)
VFR
Wind Visibility
70° at 7 knots 10,000+ meters
Clouds
  • Few at 3,000' AGL
Temperature Dewpoint
27°C / 81°F 15°C / 59°F
Humidity Altimeter Pressure
48% 29.94" Hg 1014 hPa